sensor_id;sensor_type;location;lat;lon;timestamp;pressure;altitude;pressure_sealevel;temperature;humidity
76590;BME280;65471;55.908;37.880;2024-03-07T00:02:15;100719.16;;;-10.69;71.05
76590;BME280;65471;55.908;37.880;2024-03-07T00:04:44;100716.75;;;-10.74;71.55
76590;BME280;65471;55.908;37.880;2024-03-07T00:07:11;100726.56;;;-10.79;71.51
76590;BME280;65471;55.908;37.880;2024-03-07T00:09:38;100717.03;;;-10.80;71.71
76590;BME280;65471;55.908;37.880;2024-03-07T00:12:06;100719.59;;;-10.79;71.71
76590;BME280;65471;55.908;37.880;2024-03-07T00:14:34;100710.97;;;-10.81;71.72
76590;BME280;65471;55.908;37.880;2024-03-07T00:17:02;100710.97;;;-10.81;71.87
76590;BME280;65471;55.908;37.880;2024-03-07T00:19:29;100713.44;;;-10.78;71.99
76590;BME280;65471;55.908;37.880;2024-03-07T00:21:57;100704.53;;;-10.73;71.70
76590;BME280;65471;55.908;37.880;2024-03-07T00:24:24;100709.34;;;-10.64;71.35
76590;BME280;65471;55.908;37.880;2024-03-07T00:26:51;100703.88;;;-10.60;71.62
76590;BME280;65471;55.908;37.880;2024-03-07T00:29:18;100698.50;;;-10.56;71.41
76590;BME280;65471;55.908;37.880;2024-03-07T00:31:46;100706.44;;;-10.58;71.48
76590;BME280;65471;55.908;37.880;2024-03-07T00:34:14;100708.41;;;-10.63;71.52
76590;BME280;65471;55.908;37.880;2024-03-07T00:36:51;100702.63;;;-10.70;71.69
76590;BME280;65471;55.908;37.880;2024-03-07T00:39:18;100698.31;;;-10.71;71.97
76590;BME280;65471;55.908;37.880;2024-03-07T00:41:46;100703.06;;;-10.79;71.81
76590;BME280;65471;55.908;37.880;2024-03-07T00:44:14;100691.28;;;-10.88;72.09
76590;BME280;65471;55.908;37.880;2024-03-07T00:46:41;100690.50;;;-10.90;72.15
76590;BME280;65471;55.908;37.880;2024-03-07T00:49:08;100695.59;;;-10.87;72.25
76590;BME280;65471;55.908;37.880;2024-03-07T00:51:35;100682.59;;;-10.88;72.23
76590;BME280;65471;55.908;37.880;2024-03-07T00:54:05;100692.19;;;-10.89;72.31
76590;BME280;65471;55.908;37.880;2024-03-07T00:56:33;100688.97;;;-10.94;72.31
76590;BME280;65471;55.908;37.880;2024-03-07T00:59:00;100686.97;;;-11.08;72.36
76590;BME280;65471;55.908;37.880;2024-03-07T01:01:27;100691.78;;;-11.18;72.76
76590;BME280;65471;55.908;37.880;2024-03-07T01:03:54;100679.91;;;-11.25;73.07
76590;BME280;65471;55.908;37.880;2024-03-07T01:06:21;100620.50;;;-11.58;72.98
76590;BME280;65471;55.908;37.880;2024-03-07T01:08:49;100686.25;;;-11.12;72.96
76590;BME280;65471;55.908;37.880;2024-03-07T01:11:17;100683.38;;;-11.05;72.70
76590;BME280;65471;55.908;37.880;2024-03-07T01:13:44;100667.22;;;-11.14;72.53
76590;BME280;65471;55.908;37.880;2024-03-07T01:16:11;100678.25;;;-11.07;72.58
76590;BME280;65471;55.908;37.880;2024-03-07T01:18:38;100685.41;;;-11.12;72.83
76590;BME280;65471;55.908;37.880;2024-03-07T01:21:05;100678.66;;;-11.16;72.94
76590;BME280;65471;55.908;37.880;2024-03-07T01:23:32;100675.13;;;-11.15;72.98
76590;BME280;65471;55.908;37.880;2024-03-07T01:26:00;100682.16;;;-11.17;73.03
76590;BME280;65471;55.908;37.880;2024-03-07T01:28:29;100683.03;;;-11.17;72.86
76590;BME280;65471;55.908;37.880;2024-03-07T01:30:57;100685.50;;;-11.14;72.77
76590;BME280;65471;55.908;37.880;2024-03-07T01:33:27;100668.91;;;-11.13;73.06
76590;BME280;65471;55.908;37.880;2024-03-07T01:35:55;100667.97;;;-11.12;73.10
76590;BME280;65471;55.908;37.880;2024-03-07T01:38:22;100665.25;;;-11.08;73.10
76590;BME280;65471;55.908;37.880;2024-03-07T01:40:49;100665.03;;;-11.04;73.25
76590;BME280;65471;55.908;37.880;2024-03-07T01:43:16;100664.88;;;-11.01;72.93
76590;BME280;65471;55.908;37.880;2024-03-07T01:45:43;100672.72;;;-11.01;72.89
76590;BME280;65471;55.908;37.880;2024-03-07T01:48:11;100667.66;;;-11.04;73.18
76590;BME280;65471;55.908;37.880;2024-03-07T01:50:41;100663.47;;;-11.08;72.77
76590;BME280;65471;55.908;37.880;2024-03-07T01:53:09;100674.13;;;-11.13;72.96
76590;BME280;65471;55.908;37.880;2024-03-07T01:55:38;100665.66;;;-11.18;72.98
76590;BME280;65471;55.908;37.880;2024-03-07T01:58:06;100668.50;;;-11.22;72.85
76590;BME280;65471;55.908;37.880;2024-03-07T02:00:35;100667.25;;;-11.34;73.21
76590;BME280;65471;55.908;37.880;2024-03-07T02:03:02;100667.03;;;-11.49;73.25
76590;BME280;65471;55.908;37.880;2024-03-07T02:05:29;100652.72;;;-11.59;73.61
76590;BME280;65471;55.908;37.880;2024-03-07T02:07:56;100649.41;;;-11.63;73.64
76590;BME280;65471;55.908;37.880;2024-03-07T02:10:23;100643.63;;;-11.69;73.84
76590;BME280;65471;55.908;37.880;2024-03-07T02:12:51;100644.59;;;-11.72;73.82
76590;BME280;65471;55.908;37.880;2024-03-07T02:15:18;100650.78;;;-11.74;73.88
76590;BME280;65471;55.908;37.880;2024-03-07T02:17:45;100652.63;;;-11.76;73.92
76590;BME280;65471;55.908;37.880;2024-03-07T02:20:12;100646.75;;;-11.82;73.96
76590;BME280;65471;55.908;37.880;2024-03-07T02:22:40;100642.50;;;-11.84;73.93
76590;BME280;65471;55.908;37.880;2024-03-07T02:25:08;100653.28;;;-11.92;74.05
76590;BME280;65471;55.908;37.880;2024-03-07T02:27:39;100647.50;;;-11.99;74.46
76590;BME280;65471;55.908;37.880;2024-03-07T02:30:06;100643.47;;;-12.06;74.35
76590;BME280;65471;55.908;37.880;2024-03-07T02:32:35;100633.25;;;-12.10;74.58
76590;BME280;65471;55.908;37.880;2024-03-07T02:35:04;100619.75;;;-12.20;74.50
76590;BME280;65471;55.908;37.880;2024-03-07T02:37:31;100634.75;;;-12.05;74.40
76590;BME280;65471;55.908;37.880;2024-03-07T02:39:58;100636.25;;;-11.99;74.34
76590;BME280;65471;55.908;37.880;2024-03-07T02:42:25;100634.41;;;-11.97;74.27
76590;BME280;65471;55.908;37.880;2024-03-07T02:44:52;100627.44;;;-11.96;74.13
76590;BME280;65471;55.908;37.880;2024-03-07T02:47:19;100634.47;;;-11.99;74.28
76590;BME280;65471;55.908;37.880;2024-03-07T02:49:46;100641.47;;;-11.99;74.22
76590;BME280;65471;55.908;37.880;2024-03-07T02:52:13;100631.03;;;-11.99;74.33
76590;BME280;65471;55.908;37.880;2024-03-07T02:54:40;100635.47;;;-12.01;74.61
76590;BME280;65471;55.908;37.880;2024-03-07T02:57:07;100644.63;;;-11.92;74.46
76590;BME280;65471;55.908;37.880;2024-03-07T02:59:34;100629.75;;;-11.90;74.40
76590;BME280;65471;55.908;37.880;2024-03-07T03:02:01;100620.03;;;-11.87;74.20
76590;BME280;65471;55.908;37.880;2024-03-07T03:04:28;100616.63;;;-11.89;74.27
76590;BME280;65471;55.908;37.880;2024-03-07T03:06:55;100628.63;;;-11.85;74.19
76590;BME280;65471;55.908;37.880;2024-03-07T03:09:22;100630.53;;;-11.88;74.04
76590;BME280;65471;55.908;37.880;2024-03-07T03:11:50;100622.00;;;-11.92;74.10
76590;BME280;65471;55.908;37.880;2024-03-07T03:14:18;100626.38;;;-11.92;74.29
76590;BME280;65471;55.908;37.880;2024-03-07T03:16:45;100628.03;;;-11.91;74.41
76590;BME280;65471;55.908;37.880;2024-03-07T03:19:15;100617.63;;;-11.91;74.25
76590;BME280;65471;55.908;37.880;2024-03-07T03:21:42;100616.88;;;-11.93;74.60
76590;BME280;65471;55.908;37.880;2024-03-07T03:24:09;100612.00;;;-12.01;74.57
76590;BME280;65471;55.908;37.880;2024-03-07T03:26:37;100617.78;;;-11.94;74.57
76590;BME280;65471;55.908;37.880;2024-03-07T03:29:04;100583.72;;;-12.10;74.39
76590;BME280;65471;55.908;37.880;2024-03-07T03:31:32;100614.47;;;-11.98;74.51
76590;BME280;65471;55.908;37.880;2024-03-07T03:34:00;100517.19;;;-12.59;74.63
76590;BME280;65471;55.908;37.880;2024-03-07T03:36:27;100618.00;;;-11.99;74.31
76590;BME280;65471;55.908;37.880;2024-03-07T03:38:55;100613.75;;;-12.02;74.40
76590;BME280;65471;55.908;37.880;2024-03-07T03:41:22;100597.59;;;-12.10;74.72
76590;BME280;65471;55.908;37.880;2024-03-07T03:43:49;100615.53;;;-12.02;74.29
76590;BME280;65471;55.908;37.880;2024-03-07T03:46:16;100620.16;;;-12.09;74.35
76590;BME280;65471;55.908;37.880;2024-03-07T03:48:43;100614.34;;;-12.16;74.56
76590;BME280;65471;55.908;37.880;2024-03-07T03:51:10;100614.53;;;-12.20;74.71
76590;BME280;65471;55.908;37.880;2024-03-07T03:53:39;100613.84;;;-12.24;74.69
76590;BME280;65471;55.908;37.880;2024-03-07T03:56:10;100614.81;;;-12.26;74.85
76590;BME280;65471;55.908;37.880;2024-03-07T03:58:41;100590.06;;;-12.37;74.88
76590;BME280;65471;55.908;37.880;2024-03-07T04:01:10;100579.41;;;-12.53;74.66
76590;BME280;65471;55.908;37.880;2024-03-07T04:03:40;100610.78;;;-12.34;74.81
76590;BME280;65471;55.908;37.880;2024-03-07T04:06:07;100590.31;;;-12.43;74.99
76590;BME280;65471;55.908;37.880;2024-03-07T04:08:34;100590.97;;;-12.38;75.36
76590;BME280;65471;55.908;37.880;2024-03-07T04:11:04;100592.75;;;-12.38;75.08
76590;BME280;65471;55.908;37.880;2024-03-07T04:13:31;100586.13;;;-12.47;75.16
76590;BME280;65471;55.908;37.880;2024-03-07T04:15:58;100594.69;;;-12.43;75.02
76590;BME280;65471;55.908;37.880;2024-03-07T04:18:26;100590.16;;;-12.40;75.42
76590;BME280;65471;55.908;37.880;2024-03-07T04:20:53;100598.91;;;-12.41;75.17
76590;BME280;65471;55.908;37.880;2024-03-07T04:23:21;100593.13;;;-12.47;75.27
76590;BME280;65471;55.908;37.880;2024-03-07T04:25:48;100589.84;;;-12.53;75.52
76590;BME280;65471;55.908;37.880;2024-03-07T04:28:15;100592.56;;;-12.56;75.73
76590;BME280;65471;55.908;37.880;2024-03-07T04:30:41;100598.47;;;-12.51;75.68
76590;BME280;65471;55.908;37.880;2024-03-07T04:33:09;100585.31;;;-12.47;75.68
76590;BME280;65471;55.908;37.880;2024-03-07T04:35:36;100599.09;;;-12.45;75.76
76590;BME280;65471;55.908;37.880;2024-03-07T04:38:03;100585.22;;;-12.46;75.47
76590;BME280;65471;55.908;37.880;2024-03-07T04:40:30;100600.50;;;-12.37;75.47
76590;BME280;65471;55.908;37.880;2024-03-07T04:42:57;100596.78;;;-12.31;75.50
76590;BME280;65471;55.908;37.880;2024-03-07T04:45:24;100589.59;;;-12.26;75.31
76590;BME280;65471;55.908;37.880;2024-03-07T04:47:51;100584.13;;;-12.20;75.55
76590;BME280;65471;55.908;37.880;2024-03-07T04:50:19;100583.94;;;-12.15;75.55
76590;BME280;65471;55.908;37.880;2024-03-07T04:52:47;100588.09;;;-12.11;75.18
76590;BME280;65471;55.908;37.880;2024-03-07T04:55:16;100582.03;;;-12.11;75.54
76590;BME280;65471;55.908;37.880;2024-03-07T04:57:44;100589.16;;;-12.15;75.64
76590;BME280;65471;55.908;37.880;2024-03-07T05:00:12;100582.09;;;-12.13;75.68
76590;BME280;65471;55.908;37.880;2024-03-07T05:02:48;100590.56;;;-12.08;75.81
76590;BME280;65471;55.908;37.880;2024-03-07T05:05:18;100585.00;;;-12.00;75.75
76590;BME280;65471;55.908;37.880;2024-03-07T05:07:51;100579.38;;;-11.91;75.54
76590;BME280;65471;55.908;37.880;2024-03-07T05:10:19;100571.25;;;-11.85;75.47
76590;BME280;65471;55.908;37.880;2024-03-07T05:12:47;100579.16;;;-11.67;75.55
76590;BME280;65471;55.908;37.880;2024-03-07T05:15:14;100593.56;;;-11.58;75.19
76590;BME280;65471;55.908;37.880;2024-03-07T05:17:41;100582.84;;;-11.52;75.22
76590;BME280;65471;55.908;37.880;2024-03-07T05:20:10;100586.88;;;-11.45;75.13
76590;BME280;65471;55.908;37.880;2024-03-07T05:22:40;100592.16;;;-11.47;75.26
76590;BME280;65471;55.908;37.880;2024-03-07T05:25:07;100576.84;;;-11.54;75.36
76590;BME280;65471;55.908;37.880;2024-03-07T05:27:36;100546.66;;;-11.60;75.50
76590;BME280;65471;55.908;37.880;2024-03-07T05:30:03;100579.47;;;-11.35;75.45
76590;BME280;65471;55.908;37.880;2024-03-07T05:32:37;100566.84;;;-11.25;75.50
76590;BME280;65471;55.908;37.880;2024-03-07T05:35:05;100560.94;;;-11.12;75.30
76590;BME280;65471;55.908;37.880;2024-03-07T05:37:32;100561.25;;;-11.00;75.19
76590;BME280;65471;55.908;37.880;2024-03-07T05:39:59;100560.59;;;-10.86;75.34
76590;BME280;65471;55.908;37.880;2024-03-07T05:42:27;100553.91;;;-10.74;75.19
76590;BME280;65471;55.908;37.880;2024-03-07T05:44:56;100553.31;;;-10.62;75.10
76590;BME280;65471;55.908;37.880;2024-03-07T05:47:23;100551.75;;;-10.49;75.07
76590;BME280;65471;55.908;37.880;2024-03-07T05:49:51;100550.22;;;-10.35;74.89
76590;BME280;65471;55.908;37.880;2024-03-07T05:52:18;100552.94;;;-10.21;75.09
76590;BME280;65471;55.908;37.880;2024-03-07T05:54:45;100553.91;;;-10.06;74.79
76590;BME280;65471;55.908;37.880;2024-03-07T05:57:12;100554.72;;;-9.88;74.66
76590;BME280;65471;55.908;37.880;2024-03-07T05:59:39;100555.59;;;-9.72;74.79
76590;BME280;65471;55.908;37.880;2024-03-07T06:02:06;100546.94;;;-9.56;74.87
76590;BME280;65471;55.908;37.880;2024-03-07T06:04:33;100556.31;;;-9.36;74.57
76590;BME280;65471;55.908;37.880;2024-03-07T06:07:01;100543.03;;;-9.17;74.45
76590;BME280;65471;55.908;37.880;2024-03-07T06:09:28;100538.16;;;-8.93;74.43
76590;BME280;65471;55.908;37.880;2024-03-07T06:11:55;100543.50;;;-8.64;73.76
76590;BME280;65471;55.908;37.880;2024-03-07T06:14:22;100534.25;;;-8.41;73.33
76590;BME280;65471;55.908;37.880;2024-03-07T06:16:51;100539.16;;;-8.20;73.41
76590;BME280;65471;55.908;37.880;2024-03-07T06:19:21;100538.16;;;-8.03;73.35
76590;BME280;65471;55.908;37.880;2024-03-07T06:21:48;100534.78;;;-7.91;73.09
76590;BME280;65471;55.908;37.880;2024-03-07T06:24:16;100539.81;;;-7.73;72.92
76590;BME280;65471;55.908;37.880;2024-03-07T06:26:45;100533.44;;;-7.55;72.51
76590;BME280;65471;55.908;37.880;2024-03-07T06:29:26;100519.22;;;-7.38;72.60
76590;BME280;65471;55.908;37.880;2024-03-07T06:31:55;100529.94;;;-7.14;71.64
76590;BME280;65471;55.908;37.880;2024-03-07T06:34:22;100536.91;;;-7.00;72.05
76590;BME280;65471;55.908;37.880;2024-03-07T06:36:48;100522.28;;;-6.77;71.52
76590;BME280;65471;55.908;37.880;2024-03-07T06:39:15;100520.22;;;-6.33;69.75
76590;BME280;65471;55.908;37.880;2024-03-07T06:41:42;100517.09;;;-6.12;69.23
76590;BME280;65471;55.908;37.880;2024-03-07T06:44:10;100510.63;;;-5.95;68.47
76590;BME280;65471;55.908;37.880;2024-03-07T06:46:37;100511.31;;;-5.80;67.78
76590;BME280;65471;55.908;37.880;2024-03-07T06:49:04;100510.69;;;-5.71;68.79
76590;BME280;65471;55.908;37.880;2024-03-07T06:51:37;100508.63;;;-5.55;67.82
76590;BME280;65471;55.908;37.880;2024-03-07T06:54:06;100518.09;;;-5.39;67.33
76590;BME280;65471;55.908;37.880;2024-03-07T06:56:33;100508.97;;;-5.22;67.29
76590;BME280;65471;55.908;37.880;2024-03-07T06:59:00;100506.50;;;-5.12;67.04
76590;BME280;65471;55.908;37.880;2024-03-07T07:01:31;100504.84;;;-5.02;65.93
76590;BME280;65471;55.908;37.880;2024-03-07T07:03:58;100502.50;;;-4.94;66.28
76590;BME280;65471;55.908;37.880;2024-03-07T07:06:30;100497.38;;;-4.84;65.94
76590;BME280;65471;55.908;37.880;2024-03-07T07:08:58;100501.13;;;-4.75;65.86
76590;BME280;65471;55.908;37.880;2024-03-07T07:11:26;100497.69;;;-4.64;64.77
76590;BME280;65471;55.908;37.880;2024-03-07T07:13:59;100495.72;;;-4.38;64.31
76590;BME280;65471;55.908;37.880;2024-03-07T07:16:26;100498.88;;;-4.10;63.44
76590;BME280;65471;55.908;37.880;2024-03-07T07:18:54;100480.75;;;-3.92;62.76
76590;BME280;65471;55.908;37.880;2024-03-07T07:21:22;100476.66;;;-3.85;62.60
76590;BME280;65471;55.908;37.880;2024-03-07T07:23:49;100477.38;;;-3.72;62.14
76590;BME280;65471;55.908;37.880;2024-03-07T07:26:16;100482.03;;;-3.64;61.89
76590;BME280;65471;55.908;37.880;2024-03-07T07:28:43;100474.09;;;-3.53;62.02
76590;BME280;65471;55.908;37.880;2024-03-07T07:31:10;100472.06;;;-3.49;61.76
76590;BME280;65471;55.908;37.880;2024-03-07T07:33:37;100481.06;;;-3.40;61.93
76590;BME280;65471;55.908;37.880;2024-03-07T07:36:04;100475.22;;;-3.23;61.03
76590;BME280;65471;55.908;37.880;2024-03-07T07:38:32;100479.66;;;-3.12;61.12
76590;BME280;65471;55.908;37.880;2024-03-07T07:41:00;100475.22;;;-2.90;59.58
76590;BME280;65471;55.908;37.880;2024-03-07T07:43:28;100469.16;;;-2.81;60.14
76590;BME280;65471;55.908;37.880;2024-03-07T07:46:08;100464.91;;;-2.72;60.31
76590;BME280;65471;55.908;37.880;2024-03-07T07:48:35;100454.25;;;-2.61;60.41
76590;BME280;65471;55.908;37.880;2024-03-07T07:51:03;100462.00;;;-2.48;59.87
76590;BME280;65471;55.908;37.880;2024-03-07T07:53:31;100458.13;;;-2.44;60.47
76590;BME280;65471;55.908;37.880;2024-03-07T07:55:58;100456.13;;;-2.31;59.64
76590;BME280;65471;55.908;37.880;2024-03-07T07:58:26;100453.91;;;-2.26;59.97
76590;BME280;65471;55.908;37.880;2024-03-07T08:00:53;100457.69;;;-2.18;60.44
76590;BME280;65471;55.908;37.880;2024-03-07T08:03:20;100449.78;;;-2.09;59.77
76590;BME280;65471;55.908;37.880;2024-03-07T08:05:49;100443.44;;;-1.96;59.89
76590;BME280;65471;55.908;37.880;2024-03-07T08:08:16;100441.09;;;-1.80;59.77
76590;BME280;65471;55.908;37.880;2024-03-07T08:10:45;100436.84;;;-1.71;59.38
76590;BME280;65471;55.908;37.880;2024-03-07T08:13:13;100426.78;;;-1.67;59.25
76590;BME280;65471;55.908;37.880;2024-03-07T08:15:41;100432.41;;;-1.51;59.79
76590;BME280;65471;55.908;37.880;2024-03-07T08:18:09;100428.09;;;-1.42;59.20
76590;BME280;65471;55.908;37.880;2024-03-07T08:20:38;100421.41;;;-1.36;59.46
76590;BME280;65471;55.908;37.880;2024-03-07T08:23:07;100418.75;;;-1.27;58.21
76590;BME280;65471;55.908;37.880;2024-03-07T08:25:34;100414.28;;;-1.16;57.53
76590;BME280;65471;55.908;37.880;2024-03-07T08:28:01;100416.50;;;-1.12;58.27
76590;BME280;65471;55.908;37.880;2024-03-07T08:30:28;100426.16;;;-1.01;58.59
76590;BME280;65471;55.908;37.880;2024-03-07T08:32:56;100424.47;;;-0.92;58.44
76590;BME280;65471;55.908;37.880;2024-03-07T08:35:25;100419.16;;;-0.73;57.99
76590;BME280;65471;55.908;37.880;2024-03-07T08:37:53;100407.22;;;-0.59;57.88
76590;BME280;65471;55.908;37.880;2024-03-07T08:40:23;100406.22;;;-0.48;57.90
76590;BME280;65471;55.908;37.880;2024-03-07T08:42:55;100404.06;;;-0.35;56.71
76590;BME280;65471;55.908;37.880;2024-03-07T08:45:25;100401.78;;;-0.20;56.65
76590;BME280;65471;55.908;37.880;2024-03-07T08:47:56;100396.44;;;-0.10;56.70
76590;BME280;65471;55.908;37.880;2024-03-07T08:50:26;100398.19;;;-0.01;56.11
76590;BME280;65471;55.908;37.880;2024-03-07T08:52:55;100405.31;;;0.09;56.54
76590;BME280;65471;55.908;37.880;2024-03-07T08:55:24;100391.81;;;0.20;56.81
76590;BME280;65471;55.908;37.880;2024-03-07T08:57:54;100393.41;;;0.31;56.87
76590;BME280;65471;55.908;37.880;2024-03-07T09:00:22;100396.97;;;0.40;56.13
76590;BME280;65471;55.908;37.880;2024-03-07T09:02:56;100397.63;;;0.51;55.55
76590;BME280;65471;55.908;37.880;2024-03-07T09:05:31;100390.41;;;0.62;55.23
76590;BME280;65471;55.908;37.880;2024-03-07T09:08:01;100393.00;;;0.72;54.19
76590;BME280;65471;55.908;37.880;2024-03-07T09:10:30;100395.09;;;0.86;54.22
76590;BME280;65471;55.908;37.880;2024-03-07T09:12:58;100388.19;;;0.93;54.22
76590;BME280;65471;55.908;37.880;2024-03-07T09:15:25;100380.88;;;0.95;53.86
76590;BME280;65471;55.908;37.880;2024-03-07T09:17:54;100385.22;;;0.96;54.14
76590;BME280;65471;55.908;37.880;2024-03-07T09:20:22;100389.06;;;1.02;53.54
76590;BME280;65471;55.908;37.880;2024-03-07T09:22:51;100374.00;;;1.11;53.17
76590;BME280;65471;55.908;37.880;2024-03-07T09:25:22;100374.28;;;1.26;53.70
76590;BME280;65471;55.908;37.880;2024-03-07T09:27:52;100376.53;;;1.38;53.75
76590;BME280;65471;55.908;37.880;2024-03-07T09:30:19;100375.56;;;1.48;52.77
76590;BME280;65471;55.908;37.880;2024-03-07T09:32:51;100364.31;;;1.62;52.20
76590;BME280;65471;55.908;37.880;2024-03-07T09:35:18;100369.78;;;1.95;52.16
76590;BME280;65471;55.908;37.880;2024-03-07T09:37:45;100358.97;;;2.56;50.32
76590;BME280;65471;55.908;37.880;2024-03-07T09:40:13;100366.50;;;3.83;47.26
76590;BME280;65471;55.908;37.880;2024-03-07T09:42:49;100361.47;;;5.95;43.45
76590;BME280;65471;55.908;37.880;2024-03-07T09:45:20;100361.63;;;8.63;39.48
76590;BME280;65471;55.908;37.880;2024-03-07T09:47:50;100351.44;;;9.72;37.37
76590;BME280;65471;55.908;37.880;2024-03-07T09:50:21;100345.00;;;10.25;36.17
76590;BME280;65471;55.908;37.880;2024-03-07T09:52:51;100344.09;;;10.45;35.41
76590;BME280;65471;55.908;37.880;2024-03-07T09:55:20;100343.31;;;11.20;33.95
76590;BME280;65471;55.908;37.880;2024-03-07T09:57:49;100350.88;;;11.80;32.92
76590;BME280;65471;55.908;37.880;2024-03-07T10:00:18;100334.06;;;12.27;32.06
76590;BME280;65471;55.908;37.880;2024-03-07T10:03:02;100333.88;;;12.40;30.93
76590;BME280;65471;55.908;37.880;2024-03-07T10:05:32;100350.78;;;10.35;32.69
76590;BME280;65471;55.908;37.880;2024-03-07T10:08:00;100346.69;;;10.13;33.55
76590;BME280;65471;55.908;37.880;2024-03-07T10:10:28;100346.09;;;9.52;34.45
76590;BME280;65471;55.908;37.880;2024-03-07T10:12:57;100348.78;;;9.12;35.70
76590;BME280;65471;55.908;37.880;2024-03-07T10:15:29;100350.06;;;8.89;35.29
76590;BME280;65471;55.908;37.880;2024-03-07T10:17:57;100348.53;;;7.28;37.08
76590;BME280;65471;55.908;37.880;2024-03-07T10:20:24;100342.78;;;6.38;38.68
76590;BME280;65471;55.908;37.880;2024-03-07T10:22:51;100347.00;;;6.90;38.81
76590;BME280;65471;55.908;37.880;2024-03-07T10:25:20;100340.22;;;7.51;38.51
76590;BME280;65471;55.908;37.880;2024-03-07T10:27:51;100336.19;;;7.69;38.35
76590;BME280;65471;55.908;37.880;2024-03-07T10:30:19;100320.47;;;7.09;39.06
76590;BME280;65471;55.908;37.880;2024-03-07T10:32:56;100340.28;;;6.36;39.90
76590;BME280;65471;55.908;37.880;2024-03-07T10:35:25;100332.72;;;5.59;41.53
76590;BME280;65471;55.908;37.880;2024-03-07T10:37:53;100330.16;;;5.12;42.79
76590;BME280;65471;55.908;37.880;2024-03-07T10:40:24;100337.13;;;4.83;43.68
76590;BME280;65471;55.908;37.880;2024-03-07T10:42:57;100326.84;;;5.10;43.91
76590;BME280;65471;55.908;37.880;2024-03-07T10:45:28;100316.94;;;6.80;40.80
76590;BME280;65471;55.908;37.880;2024-03-07T10:47:57;100321.34;;;7.45;39.23
76590;BME280;65471;55.908;37.880;2024-03-07T11:01:31;100299.19;;;5.99;40.42
76590;BME280;65471;55.908;37.880;2024-03-07T11:04:02;100296.03;;;6.32;39.79
76590;BME280;65471;55.908;37.880;2024-03-07T11:06:33;100289.69;;;6.18;40.02
76590;BME280;65471;55.908;37.880;2024-03-07T11:09:03;100280.50;;;5.76;40.71
76590;BME280;65471;55.908;37.880;2024-03-07T11:11:38;100280.25;;;5.41;41.00
76590;BME280;65471;55.908;37.880;2024-03-07T11:14:08;100281.91;;;5.12;41.63
76590;BME280;65471;55.908;37.880;2024-03-07T11:16:39;100276.13;;;4.86;42.24
76590;BME280;65471;55.908;37.880;2024-03-07T11:19:29;100290.22;;;5.03;42.44
76590;BME280;65471;55.908;37.880;2024-03-07T11:22:04;100279.03;;;4.61;42.76
76590;BME280;65471;55.908;37.880;2024-03-07T11:24:43;100275.75;;;4.27;43.46
76590;BME280;65471;55.908;37.880;2024-03-07T11:27:10;100271.19;;;5.42;41.71
76590;BME280;65471;55.908;37.880;2024-03-07T11:29:47;100268.03;;;5.53;41.82
76590;BME280;65471;55.908;37.880;2024-03-07T11:32:15;100267.28;;;5.60;42.18
76590;BME280;65471;55.908;37.880;2024-03-07T11:34:44;100266.81;;;5.86;41.71
76590;BME280;65471;55.908;37.880;2024-03-07T11:37:37;100265.81;;;5.72;42.66
76590;BME280;65471;55.908;37.880;2024-03-07T11:40:08;100271.28;;;5.34;41.58
76590;BME280;65471;55.908;37.880;2024-03-07T11:42:48;100251.97;;;6.70;39.60
76590;BME280;65471;55.908;37.880;2024-03-07T11:45:17;100257.38;;;7.88;36.81
76590;BME280;65471;55.908;37.880;2024-03-07T11:47:56;100249.59;;;8.34;36.93
76590;BME280;65471;55.908;37.880;2024-03-07T11:50:40;100251.09;;;7.26;38.99
76590;BME280;65471;55.908;37.880;2024-03-07T11:53:08;100251.06;;;6.19;40.38
76590;BME280;65471;55.908;37.880;2024-03-07T11:55:37;100257.47;;;5.67;41.67
76590;BME280;65471;55.908;37.880;2024-03-07T11:58:19;100258.72;;;5.19;42.99
76590;BME280;65471;55.908;37.880;2024-03-07T12:00:49;100253.78;;;4.78;43.62
76590;BME280;65471;55.908;37.880;2024-03-07T12:03:19;100244.72;;;4.41;44.14
76590;BME280;65471;55.908;37.880;2024-03-07T12:05:53;100249.31;;;4.09;44.22
76590;BME280;65471;55.908;37.880;2024-03-07T12:08:20;100239.59;;;3.85;44.17
76590;BME280;65471;55.908;37.880;2024-03-07T12:10:53;100245.34;;;3.74;44.91
76590;BME280;65471;55.908;37.880;2024-03-07T12:13:26;100243.88;;;3.63;45.44
76590;BME280;65471;55.908;37.880;2024-03-07T12:15:54;100242.44;;;3.52;45.54
76590;BME280;65471;55.908;37.880;2024-03-07T12:18:23;100211.25;;;3.36;45.84
76590;BME280;65471;55.908;37.880;2024-03-07T12:20:51;100229.31;;;3.34;46.19
76590;BME280;65471;55.908;37.880;2024-03-07T12:23:23;100232.84;;;3.26;46.01
76590;BME280;65471;55.908;37.880;2024-03-07T12:26:03;100224.00;;;3.18;46.35
76590;BME280;65471;55.908;37.880;2024-03-07T12:28:32;100223.09;;;3.02;45.28
76590;BME280;65471;55.908;37.880;2024-03-07T12:31:02;100224.09;;;2.93;45.63
76590;BME280;65471;55.908;37.880;2024-03-07T12:33:30;100225.94;;;2.92;46.36
76590;BME280;65471;55.908;37.880;2024-03-07T12:36:01;100223.28;;;2.76;46.19
76590;BME280;65471;55.908;37.880;2024-03-07T12:38:33;100217.66;;;2.71;47.17
76590;BME280;65471;55.908;37.880;2024-03-07T12:41:05;100212.97;;;2.65;47.25
76590;BME280;65471;55.908;37.880;2024-03-07T12:43:34;100210.63;;;2.62;46.95
76590;BME280;65471;55.908;37.880;2024-03-07T12:46:01;100205.63;;;2.58;46.27
76590;BME280;65471;55.908;37.880;2024-03-07T12:48:31;100189.44;;;2.52;45.76
76590;BME280;65471;55.908;37.880;2024-03-07T12:50:59;100203.13;;;2.57;46.40
76590;BME280;65471;55.908;37.880;2024-03-07T12:53:27;100191.13;;;2.45;46.46
76590;BME280;65471;55.908;37.880;2024-03-07T12:55:56;100196.63;;;2.51;46.32
76590;BME280;65471;55.908;37.880;2024-03-07T12:58:23;100196.97;;;2.48;47.13